Time;durP1;ratioP1;P1;durP2;ratioP2;P2;SDS_P1;SDS_P2;PMS_P1;PMS_P2;Temp;Humidity;BMP_temperature;BMP_pressure;BME280_temperature;BME280_humidity;BME280_pressure;Samples;Min_cycle;Max_cycle;Signal;HPM_P1;HPM_P2
2023/05/04 00:01:17;;;;;;;0.60;0.40;;;10.90;99.90;;;;;;5021990;28;20209;-68
2023/05/04 00:03:45;;;;;;;1.27;1.00;;;11.00;99.90;;;;;;5030408;28;20270;-70
2023/05/04 00:06:14;;;;;;;0.70;0.60;;;10.90;99.90;;;;;;5026600;28;20207;-70
2023/05/04 00:08:44;;;;;;;0.60;0.40;;;10.90;99.90;;;;;;5065911;22;20322;-63
2023/05/04 00:11:11;;;;;;;0.60;0.40;;;10.80;99.90;;;;;;5052910;28;20261;-62
2023/05/04 00:13:39;;;;;;;1.27;0.55;;;10.80;99.90;;;;;;5053246;28;20262;-62
2023/05/04 00:16:07;;;;;;;0.60;0.50;;;10.80;99.90;;;;;;5045225;28;20195;-63
2023/05/04 00:18:37;;;;;;;0.60;0.40;;;10.90;99.90;;;;;;5052389;28;20239;-63
2023/05/04 00:21:05;;;;;;;0.60;0.50;;;10.90;99.90;;;;;;5053095;28;20204;-63
2023/05/04 00:23:34;;;;;;;0.60;0.47;;;11.00;99.90;;;;;;5052707;28;20219;-62
2023/05/04 00:26:03;;;;;;;0.77;0.60;;;10.90;99.90;;;;;;5057392;28;20662;-62
2023/05/04 00:28:31;;;;;;;0.68;0.50;;;10.90;99.90;;;;;;5052777;28;20310;-61
2023/05/04 00:30:59;;;;;;;0.80;0.50;;;10.80;99.90;;;;;;5052588;28;20287;-62
2023/05/04 00:33:27;;;;;;;0.60;0.50;;;10.70;99.90;;;;;;5052989;28;20659;-62
2023/05/04 00:35:55;;;;;;;0.70;0.60;;;10.60;99.90;;;;;;5052537;28;20214;-62
2023/05/04 00:38:22;;;;;;;0.60;0.40;;;10.60;99.90;;;;;;5052953;28;20230;-62
2023/05/04 00:40:50;;;;;;;0.68;0.68;;;10.60;99.90;;;;;;5052462;28;20287;-62
2023/05/04 00:43:20;;;;;;;1.23;0.60;;;10.50;99.90;;;;;;5044524;28;20214;-62
2023/05/04 00:45:48;;;;;;;0.60;0.40;;;10.60;99.90;;;;;;5052632;28;20230;-63
2023/05/04 00:48:15;;;;;;;0.80;0.50;;;10.60;99.90;;;;;;5052128;28;20219;-63
2023/05/04 00:50:44;;;;;;;0.80;0.57;;;10.70;99.90;;;;;;5052302;28;20212;-63
2023/05/04 00:53:12;;;;;;;0.60;0.50;;;10.90;99.90;;;;;;5056575;28;20231;-62
2023/05/04 00:55:40;;;;;;;0.60;0.50;;;10.90;99.90;;;;;;5056270;28;20291;-62
2023/05/04 00:58:08;;;;;;;0.60;0.50;;;10.90;99.90;;;;;;5044155;28;20314;-61
2023/05/04 01:00:38;;;;;;;0.60;0.50;;;10.80;99.90;;;;;;5052186;28;20211;-61
2023/05/04 01:03:06;;;;;;;0.60;0.50;;;10.70;99.90;;;;;;5051698;28;20208;-61
2023/05/04 01:05:38;;;;;;;0.88;0.55;;;10.60;99.90;;;;;;5052661;28;20255;-62
2023/05/04 01:08:11;;;;;;;0.80;0.50;;;10.50;99.90;;;;;;5051548;28;20267;-62
2023/05/04 01:10:43;;;;;;;1.40;0.55;;;10.40;99.90;;;;;;5052189;28;20294;-63
2023/05/04 01:13:13;;;;;;;0.70;0.57;;;10.40;99.90;;;;;;5044279;28;20227;-62
2023/05/04 01:15:43;;;;;;;0.60;0.50;;;10.40;99.90;;;;;;5052081;28;20257;-62
2023/05/04 01:18:11;;;;;;;0.70;0.68;;;10.30;99.90;;;;;;5044108;28;20228;-62
2023/05/04 01:20:40;;;;;;;0.70;0.50;;;10.40;99.90;;;;;;5051381;28;20211;-62
2023/05/04 01:23:09;;;;;;;1.52;1.05;;;10.30;99.90;;;;;;5055029;28;20207;-62
2023/05/04 01:25:44;;;;;;;0.88;0.60;;;10.30;99.90;;;;;;5056349;28;20246;-62
2023/05/04 01:28:17;;;;;;;0.60;0.50;;;10.30;99.90;;;;;;5044001;28;20227;-61
2023/05/04 01:30:49;;;;;;;0.80;0.70;;;10.20;99.90;;;;;;5051588;28;20644;-62
2023/05/04 01:33:18;;;;;;;1.15;0.60;;;10.20;99.90;;;;;;5052031;28;20234;-62
2023/05/04 01:35:47;;;;;;;0.68;0.50;;;10.10;99.90;;;;;;5050404;28;20290;-62
2023/05/04 01:38:16;;;;;;;0.60;0.50;;;10.10;99.90;;;;;;5051525;28;20760;-62
2023/05/04 01:40:44;;;;;;;0.60;0.50;;;10.00;99.90;;;;;;5051624;28;20208;-64
2023/05/04 01:43:12;;;;;;;0.93;0.77;;;10.00;99.90;;;;;;5043615;28;20295;-65
2023/05/04 01:45:40;;;;;;;1.20;0.82;;;10.00;99.90;;;;;;5051486;28;20241;-65
2023/05/04 01:48:07;;;;;;;1.33;1.23;;;10.00;99.90;;;;;;5051036;28;20230;-66
2023/05/04 01:50:35;;;;;;;0.60;0.40;;;10.10;99.90;;;;;;5051294;28;20580;-65
2023/05/04 01:53:03;;;;;;;0.60;0.50;;;10.10;99.90;;;;;;5045056;28;20214;-62
2023/05/04 01:55:33;;;;;;;0.68;0.50;;;10.20;99.90;;;;;;5051493;28;20655;-61
2023/05/04 01:58:01;;;;;;;0.60;0.40;;;10.20;99.90;;;;;;5050945;28;20274;-63
2023/05/04 02:00:28;;;;;;;0.73;0.60;;;10.20;99.90;;;;;;5051288;28;20730;-63
2023/05/04 02:02:56;;;;;;;0.60;0.50;;;10.10;99.90;;;;;;5051043;28;20207;-63
2023/05/04 02:05:24;;;;;;;0.80;0.65;;;10.10;99.90;;;;;;5051205;28;20716;-63
2023/05/04 02:07:52;;;;;;;0.60;0.40;;;10.10;99.90;;;;;;5049949;28;20206;-62
2023/05/04 02:10:20;;;;;;;1.83;0.60;;;10.10;99.90;;;;;;5051172;28;20214;-62
2023/05/04 02:12:49;;;;;;;0.70;0.52;;;10.10;99.90;;;;;;5050747;28;20283;-63
2023/05/04 02:15:17;;;;;;;0.60;0.50;;;10.00;99.90;;;;;;5051111;28;20266;-63
2023/05/04 02:17:45;;;;;;;0.90;0.80;;;10.00;99.90;;;;;;5050832;28;20291;-62
2023/05/04 02:20:14;;;;;;;1.23;0.60;;;9.90;99.90;;;;;;5042762;28;20204;-62
2023/05/04 02:22:41;;;;;;;0.70;0.65;;;9.90;99.90;;;;;;5050930;28;20207;-64
2023/05/04 02:25:09;;;;;;;0.70;0.68;;;9.90;99.90;;;;;;5050046;28;20224;-62
2023/05/04 02:27:37;;;;;;;0.60;0.50;;;9.80;99.90;;;;;;5050593;28;20294;-61
2023/05/04 02:30:08;;;;;;;3.10;0.90;;;9.80;99.90;;;;;;5050425;28;20623;-63
2023/05/04 02:32:36;;;;;;;0.98;0.60;;;9.80;99.90;;;;;;5050934;28;20793;-62
2023/05/04 02:35:04;;;;;;;0.80;0.80;;;9.90;99.90;;;;;;5049982;28;20192;-63
2023/05/04 02:37:32;;;;;;;0.70;0.60;;;9.90;99.90;;;;;;5050694;28;20291;-63
2023/05/04 02:40:00;;;;;;;0.75;0.70;;;9.80;99.90;;;;;;5049511;28;20224;-63
2023/05/04 02:42:28;;;;;;;0.63;0.50;;;9.80;99.90;;;;;;5050521;28;20249;-63
2023/05/04 02:44:56;;;;;;;0.70;0.50;;;9.80;99.90;;;;;;5050240;28;20712;-63
2023/05/04 02:47:25;;;;;;;0.70;0.70;;;9.90;99.90;;;;;;5050603;28;20286;-63
2023/05/04 02:49:53;;;;;;;0.88;0.52;;;9.80;99.90;;;;;;5050201;28;20230;-64
2023/05/04 02:52:21;;;;;;;0.70;0.70;;;9.70;99.90;;;;;;5050387;28;20307;-63
2023/05/04 02:54:49;;;;;;;0.63;0.50;;;9.70;99.90;;;;;;5050007;28;20670;-63
2023/05/04 02:57:20;;;;;;;0.60;0.40;;;9.60;99.90;;;;;;5050435;28;20207;-64
2023/05/04 02:59:47;;;;;;;0.60;0.50;;;9.60;99.90;;;;;;5046801;28;20227;-63
2023/05/04 03:02:15;;;;;;;0.60;0.40;;;9.50;99.90;;;;;;5042510;28;20200;-63
2023/05/04 03:04:44;;;;;;;0.80;0.70;;;9.50;99.90;;;;;;5050098;28;20207;-63
2023/05/04 03:07:13;;;;;;;0.90;0.80;;;9.40;99.90;;;;;;5050177;28;20215;-63
2023/05/04 03:09:41;;;;;;;0.90;0.80;;;9.40;99.90;;;;;;5049977;28;20235;-63
2023/05/04 03:12:08;;;;;;;0.88;0.70;;;9.40;99.90;;;;;;5049803;28;20199;-63
2023/05/04 03:14:36;;;;;;;1.13;0.50;;;9.40;99.90;;;;;;5050156;28;20207;-63
2023/05/04 03:17:04;;;;;;;1.00;1.00;;;9.40;99.90;;;;;;5059252;28;20287;-62
2023/05/04 03:19:32;;;;;;;0.80;0.60;;;9.50;99.90;;;;;;5049974;28;20220;-62
2023/05/04 03:22:01;;;;;;;0.80;0.60;;;9.60;99.90;;;;;;5050089;28;20203;-63
2023/05/04 03:24:29;;;;;;;0.60;0.60;;;9.60;99.90;;;;;;5050469;28;20218;-63
2023/05/04 03:26:57;;;;;;;0.80;0.60;;;9.60;99.90;;;;;;5049534;28;20593;-64
2023/05/04 03:29:25;;;;;;;0.70;0.70;;;9.60;99.90;;;;;;5049233;28;20227;-63
2023/05/04 03:31:53;;;;;;;0.90;0.80;;;9.60;99.90;;;;;;5041048;28;20752;-63
2023/05/04 03:34:21;;;;;;;0.95;0.88;;;9.60;99.90;;;;;;5042118;28;20212;-63
2023/05/04 03:36:49;;;;;;;0.80;0.60;;;9.60;99.90;;;;;;5037156;28;20235;-63
2023/05/04 03:39:18;;;;;;;0.70;0.60;;;9.70;99.90;;;;;;5041573;28;20224;-63
2023/05/04 03:41:46;;;;;;;0.70;0.57;;;9.80;99.90;;;;;;5050157;28;20219;-64
2023/05/04 03:44:14;;;;;;;0.98;0.90;;;9.90;99.90;;;;;;5049486;28;20223;-64
2023/05/04 03:46:42;;;;;;;0.70;0.50;;;9.90;99.90;;;;;;5049973;28;20228;-63
2023/05/04 03:49:10;;;;;;;0.60;0.50;;;10.00;99.90;;;;;;5049417;28;20781;-63
2023/05/04 03:51:37;;;;;;;0.68;0.65;;;10.00;99.90;;;;;;5050024;28;20208;-63
2023/05/04 03:54:06;;;;;;;1.25;0.70;;;9.90;99.90;;;;;;5046413;28;20224;-63
2023/05/04 03:56:35;;;;;;;0.75;0.50;;;9.80;99.90;;;;;;5049471;28;20258;-64
2023/05/04 03:59:03;;;;;;;1.25;0.70;;;9.70;99.90;;;;;;5051644;28;20243;-62
2023/05/04 04:01:31;;;;;;;1.88;0.70;;;9.60;99.90;;;;;;5053467;28;20234;-62
2023/05/04 04:03:59;;;;;;;0.70;0.63;;;9.60;99.90;;;;;;5053088;28;20208;-62
2023/05/04 04:06:27;;;;;;;2.20;0.90;;;9.70;99.90;;;;;;5043944;28;20222;-63
2023/05/04 04:08:55;;;;;;;1.02;0.60;;;9.90;99.90;;;;;;5043544;28;20246;-62
2023/05/04 04:11:22;;;;;;;0.70;0.60;;;9.80;99.90;;;;;;5044569;28;20282;-63
2023/05/04 04:13:52;;;;;;;1.15;0.60;;;10.00;99.90;;;;;;5052704;28;20239;-63
2023/05/04 04:16:20;;;;;;;0.80;0.80;;;10.00;99.90;;;;;;5044702;28;20227;-62
2023/05/04 04:18:48;;;;;;;0.68;0.60;;;9.90;99.90;;;;;;5052458;28;20732;-64
2023/05/04 04:21:16;;;;;;;0.80;0.80;;;9.80;99.90;;;;;;5052301;28;20214;-62
2023/05/04 04:23:44;;;;;;;1.08;0.98;;;9.70;99.90;;;;;;5059269;28;20211;-62
2023/05/04 04:26:12;;;;;;;0.70;0.60;;;9.70;99.90;;;;;;5052502;28;20626;-62
2023/05/04 04:28:40;;;;;;;0.93;0.90;;;9.60;99.90;;;;;;5052583;28;20231;-62
2023/05/04 04:31:10;;;;;;;1.00;1.00;;;9.60;99.90;;;;;;5051763;28;20203;-62
2023/05/04 04:33:37;;;;;;;0.82;0.73;;;9.50;99.90;;;;;;5052509;28;20258;-62
2023/05/04 04:36:06;;;;;;;0.88;0.75;;;9.40;99.90;;;;;;5035609;28;20204;-62
2023/05/04 04:38:36;;;;;;;0.80;0.70;;;9.40;99.90;;;;;;5037572;28;20306;-62
2023/05/04 04:41:04;;;;;;;0.90;0.90;;;9.40;99.90;;;;;;5051867;28;20620;-62
2023/05/04 04:43:33;;;;;;;1.00;0.90;;;9.40;99.90;;;;;;5051124;28;20204;-63
2023/05/04 04:46:02;;;;;;;1.30;0.60;;;9.40;99.90;;;;;;5052017;28;20227;-62
2023/05/04 04:48:32;;;;;;;0.80;0.73;;;9.50;99.90;;;;;;5052070;28;20314;-62
2023/05/04 04:51:00;;;;;;;0.75;0.70;;;9.50;99.90;;;;;;5051402;28;20283;-62
2023/05/04 04:53:28;;;;;;;0.60;0.60;;;9.50;99.90;;;;;;5051951;28;20672;-62
2023/05/04 04:55:55;;;;;;;0.73;0.65;;;9.50;99.90;;;;;;5051200;28;20746;-62
2023/05/04 04:58:23;;;;;;;0.75;0.70;;;9.60;99.90;;;;;;5051372;28;20311;-62
2023/05/04 05:00:52;;;;;;;0.93;0.82;;;9.60;99.90;;;;;;5051685;28;20207;-62
2023/05/04 05:03:20;;;;;;;0.90;0.75;;;9.70;99.90;;;;;;5040736;28;20211;-62
2023/05/04 05:05:49;;;;;;;0.70;0.60;;;9.70;99.90;;;;;;5031704;28;20266;-62
2023/05/04 05:08:17;;;;;;;0.90;0.70;;;9.70;99.90;;;;;;5050842;28;20242;-62
2023/05/04 05:10:45;;;;;;;0.60;0.50;;;9.80;99.90;;;;;;5050469;28;20214;-62
2023/05/04 05:13:13;;;;;;;1.15;0.95;;;9.90;99.90;;;;;;5051402;28;20291;-62
2023/05/04 05:15:41;;;;;;;1.10;0.77;;;9.90;99.90;;;;;;5051266;28;20226;-62
2023/05/04 05:18:09;;;;;;;1.42;1.33;;;9.80;99.90;;;;;;5050664;28;20584;-62
2023/05/04 05:20:37;;;;;;;2.10;0.85;;;9.80;99.90;;;;;;5051189;28;20208;-62
2023/05/04 05:23:06;;;;;;;1.15;0.80;;;9.90;99.90;;;;;;5051203;28;20211;-62
2023/05/04 05:25:34;;;;;;;0.90;0.80;;;9.90;99.90;;;;;;5050191;28;20647;-62
2023/05/04 05:28:02;;;;;;;0.98;0.98;;;10.00;99.90;;;;;;5051090;28;20315;-62
2023/05/04 05:30:30;;;;;;;1.23;1.13;;;10.00;99.90;;;;;;5046481;28;20299;-63
2023/05/04 05:32:57;;;;;;;0.85;0.75;;;10.00;99.90;;;;;;5040557;28;20203;-62
2023/05/04 05:35:25;;;;;;;0.80;0.60;;;10.10;99.90;;;;;;5043400;28;20204;-62
2023/05/04 05:37:53;;;;;;;1.02;0.93;;;10.20;99.90;;;;;;5051110;28;20206;-63
2023/05/04 05:40:22;;;;;;;0.80;0.75;;;10.30;99.90;;;;;;5050893;28;20242;-63
2023/05/04 05:42:51;;;;;;;1.50;0.90;;;10.30;99.90;;;;;;5051282;28;20303;-62
2023/05/04 05:45:19;;;;;;;0.80;0.80;;;10.30;99.90;;;;;;5050755;28;20690;-62
2023/05/04 05:47:46;;;;;;;0.70;0.68;;;10.40;99.90;;;;;;5050391;28;20226;-63
2023/05/04 05:50:14;;;;;;;1.10;1.00;;;10.50;99.90;;;;;;5050461;28;20622;-62
2023/05/04 05:52:42;;;;;;;0.85;0.85;;;10.60;99.90;;;;;;5050738;28;20236;-62
2023/05/04 05:55:10;;;;;;;1.70;1.25;;;10.70;99.90;;;;;;5050699;28;20215;-62
2023/05/04 05:57:40;;;;;;;0.75;0.75;;;11.00;99.90;;;;;;5040823;28;20292;-62
2023/05/04 06:00:09;;;;;;;0.70;0.70;;;11.20;99.90;;;;;;5031325;28;20209;-62
2023/05/04 06:02:37;;;;;;;0.77;0.70;;;11.30;99.90;;;;;;5044281;28;20208;-62
2023/05/04 06:05:05;;;;;;;0.80;0.80;;;11.30;99.90;;;;;;5050012;28;20666;-62
2023/05/04 06:07:33;;;;;;;0.70;0.57;;;11.40;99.90;;;;;;5050936;28;20583;-62
2023/05/04 06:10:01;;;;;;;1.35;0.90;;;11.50;99.90;;;;;;5050190;28;20426;-61
2023/05/04 06:12:29;;;;;;;0.90;0.70;;;11.60;99.90;;;;;;5050516;28;20207;-62
2023/05/04 06:14:58;;;;;;;0.77;0.77;;;11.60;99.90;;;;;;5050691;28;20216;-62
2023/05/04 06:17:26;;;;;;;0.75;0.55;;;11.70;99.90;;;;;;5050542;28;20203;-62
2023/05/04 06:19:54;;;;;;;0.60;0.60;;;11.80;99.90;;;;;;5049899;28;20224;-64
2023/05/04 06:22:22;;;;;;;1.00;0.90;;;12.00;99.90;;;;;;5050954;28;20287;-62
2023/05/04 06:24:50;;;;;;;0.82;0.82;;;12.10;99.90;;;;;;5043996;28;20204;-62
2023/05/04 06:27:18;;;;;;;0.70;0.60;;;12.10;99.90;;;;;;5033770;28;20238;-61
2023/05/04 06:29:46;;;;;;;1.00;0.75;;;12.10;99.90;;;;;;5050357;28;20228;-62
2023/05/04 06:32:15;;;;;;;1.08;0.90;;;12.20;99.90;;;;;;5049984;28;20290;-62
2023/05/04 06:34:43;;;;;;;0.70;0.60;;;12.20;99.90;;;;;;5050293;28;20235;-62
2023/05/04 06:37:11;;;;;;;0.70;0.60;;;12.30;99.90;;;;;;5049147;28;20213;-62
2023/05/04 06:39:42;;;;;;;0.60;0.50;;;12.30;99.90;;;;;;5049788;28;20290;-62
2023/05/04 06:42:11;;;;;;;0.75;0.75;;;12.40;99.90;;;;;;5050013;28;20242;-62
2023/05/04 06:44:39;;;;;;;0.60;0.60;;;12.40;99.90;;;;;;5049667;28;20247;-62
2023/05/04 06:47:07;;;;;;;0.70;0.65;;;12.50;99.90;;;;;;5046632;28;20223;-62
2023/05/04 06:49:36;;;;;;;0.70;0.70;;;12.50;99.90;;;;;;5040641;28;20259;-62
2023/05/04 06:52:04;;;;;;;1.05;0.95;;;12.60;99.90;;;;;;5037052;28;20666;-62
2023/05/04 06:54:32;;;;;;;1.00;0.90;;;12.70;99.90;;;;;;5037837;28;20670;-62
2023/05/04 06:57:02;;;;;;;0.65;0.60;;;12.70;99.90;;;;;;5040071;28;20291;-62
2023/05/04 06:59:30;;;;;;;0.70;0.70;;;12.80;99.90;;;;;;5040266;28;20219;-62
2023/05/04 07:01:57;;;;;;;0.60;0.50;;;12.90;99.90;;;;;;5043524;28;20675;-63
2023/05/04 07:04:25;;;;;;;1.08;0.98;;;12.90;99.90;;;;;;5039381;28;20654;-63
2023/05/04 07:06:55;;;;;;;0.60;0.50;;;13.00;99.90;;;;;;5040520;28;20236;-61
2023/05/04 07:09:22;;;;;;;0.70;0.50;;;13.20;99.90;;;;;;5045310;28;20704;-62
2023/05/04 07:11:50;;;;;;;1.02;0.88;;;13.20;99.90;;;;;;5041460;28;20283;-64
2023/05/04 07:14:18;;;;;;;1.23;0.82;;;13.40;99.90;;;;;;5048018;28;20200;-62
2023/05/04 07:16:46;;;;;;;0.60;0.40;;;13.50;99.90;;;;;;5048548;28;20211;-62
2023/05/04 07:19:14;;;;;;;0.60;0.60;;;13.70;99.90;;;;;;5041058;28;20258;-61
2023/05/04 07:21:42;;;;;;;2.03;0.90;;;13.80;99.90;;;;;;5040485;28;20212;-62
2023/05/04 07:24:12;;;;;;;0.60;0.50;;;13.90;99.90;;;;;;5051339;28;20743;-62
2023/05/04 07:26:39;;;;;;;0.70;0.60;;;13.80;99.90;;;;;;5044791;28;20286;-62
2023/05/04 07:29:08;;;;;;;0.80;0.80;;;13.90;99.90;;;;;;5049189;28;20231;-62
2023/05/04 07:31:37;;;;;;;0.77;0.60;;;13.90;99.90;;;;;;5048941;28;20270;-62
2023/05/04 07:34:05;;;;;;;0.80;0.60;;;14.00;99.90;;;;;;5052327;28;20733;-61
2023/05/04 07:36:35;;;;;;;0.60;0.50;;;14.10;99.90;;;;;;5052867;28;20287;-62
2023/05/04 07:39:03;;;;;;;0.93;0.70;;;14.40;99.90;;;;;;5052778;28;20849;-62
2023/05/04 07:41:32;;;;;;;0.65;0.57;;;14.50;99.90;;;;;;5050284;28;20295;-62
2023/05/04 07:44:04;;;;;;;0.85;0.55;;;14.60;99.90;;;;;;5049743;28;20671;-62
2023/05/04 07:46:32;;;;;;;0.70;0.60;;;14.70;99.90;;;;;;5047637;28;20752;-62
2023/05/04 07:49:00;;;;;;;0.70;0.70;;;14.90;99.90;;;;;;5053143;28;20224;-62
2023/05/04 07:51:28;;;;;;;0.73;0.73;;;14.90;99.90;;;;;;5052460;28;20326;-62
2023/05/04 07:53:56;;;;;;;1.13;0.70;;;15.10;99.90;;;;;;5052761;28;20235;-62
2023/05/04 07:56:24;;;;;;;0.70;0.70;;;15.40;99.90;;;;;;5051672;28;20236;-62
2023/05/04 07:58:53;;;;;;;1.00;0.80;;;15.50;99.90;;;;;;5052967;28;20311;-62
2023/05/04 08:01:21;;;;;;;0.70;0.60;;;15.60;99.90;;;;;;5052654;28;20298;-62
2023/05/04 08:03:49;;;;;;;1.10;0.93;;;15.70;99.90;;;;;;5052568;28;20214;-62
2023/05/04 08:06:16;;;;;;;0.70;0.50;;;15.70;99.90;;;;;;5052591;28;20663;-62
2023/05/04 08:08:45;;;;;;;0.80;0.80;;;15.70;99.90;;;;;;5052221;28;20706;-62
2023/05/04 08:11:14;;;;;;;1.70;1.60;;;15.90;99.90;;;;;;5048184;28;20290;-62
2023/05/04 08:13:48;;;;;;;0.90;0.90;;;16.00;99.90;;;;;;5040553;28;20269;-62
2023/05/04 08:16:18;;;;;;;0.70;0.60;;;16.20;99.90;;;;;;5046000;28;20291;-63
2023/05/04 08:18:45;;;;;;;1.00;1.00;;;16.40;99.90;;;;;;5052418;28;20224;-62
2023/05/04 08:21:13;;;;;;;0.60;0.50;;;16.60;99.90;;;;;;5050637;28;20218;-62
2023/05/04 08:23:41;;;;;;;0.80;0.80;;;16.70;99.90;;;;;;5052008;28;20290;-62
2023/05/04 08:26:09;;;;;;;0.80;0.65;;;16.60;99.90;;;;;;5051156;28;20200;-62
2023/05/04 08:28:39;;;;;;;0.85;0.85;;;16.60;99.90;;;;;;5052035;28;20236;-62
2023/05/04 08:31:07;;;;;;;0.68;0.65;;;16.70;99.90;;;;;;5051615;28;20287;-62
2023/05/04 08:33:36;;;;;;;0.88;0.88;;;16.90;99.90;;;;;;5048934;28;20650;-62
2023/05/04 08:36:06;;;;;;;0.98;0.82;;;16.90;99.90;;;;;;5047832;28;20287;-63
2023/05/04 08:38:34;;;;;;;0.82;0.50;;;17.00;99.90;;;;;;5042853;28;20307;-62
2023/05/04 08:41:03;;;;;;;1.20;0.95;;;17.20;99.90;;;;;;5043450;28;20203;-62
2023/05/04 08:43:35;;;;;;;0.60;0.52;;;17.30;99.90;;;;;;5048040;28;20573;-62
2023/05/04 08:46:03;;;;;;;0.98;0.93;;;17.60;99.90;;;;;;5047903;28;20204;-63
2023/05/04 08:48:33;;;;;;;0.75;0.75;;;17.70;99.90;;;;;;5051389;28;20238;-62
2023/05/04 08:51:03;;;;;;;1.10;1.00;;;17.80;99.90;;;;;;5045072;28;20212;-62
2023/05/04 08:53:32;;;;;;;0.95;0.95;;;17.80;99.90;;;;;;5054686;28;20203;-63
2023/05/04 08:56:03;;;;;;;1.25;0.98;;;17.90;99.90;;;;;;5052374;28;20200;-62
2023/05/04 08:58:36;;;;;;;0.70;0.60;;;18.00;99.90;;;;;;5051617;28;20671;-62
2023/05/04 09:01:06;;;;;;;1.08;0.88;;;18.00;99.90;;;;;;5051574;28;20201;-62
2023/05/04 09:03:34;;;;;;;0.70;0.55;;;18.20;99.90;;;;;;5048600;28;20207;-63
2023/05/04 09:06:04;;;;;;;0.60;0.50;;;18.40;99.90;;;;;;5047575;28;20211;-62
2023/05/04 09:08:32;;;;;;;0.70;0.55;;;18.70;99.90;;;;;;5047188;28;20238;-62
2023/05/04 09:11:00;;;;;;;0.80;0.75;;;18.90;99.90;;;;;;5051338;28;20282;-62
2023/05/04 09:13:28;;;;;;;3.20;1.05;;;18.90;99.90;;;;;;5051097;28;20220;-63
2023/05/04 09:15:56;;;;;;;1.02;0.93;;;18.80;99.90;;;;;;5051375;28;20212;-64
2023/05/04 09:18:34;;;;;;;1.90;1.00;;;18.80;99.90;;;;;;5051290;28;20710;-63
2023/05/04 09:21:04;;;;;;;1.00;0.88;;;18.70;99.90;;;;;;5049618;28;20196;-62
2023/05/04 09:23:33;;;;;;;0.90;0.75;;;18.90;99.90;;;;;;5051028;28;20569;-63
2023/05/04 09:26:01;;;;;;;0.60;0.60;;;19.10;99.90;;;;;;5046339;28;20262;-63
2023/05/04 09:28:37;;;;;;;1.05;0.95;;;19.20;99.90;;;;;;5051708;28;20228;-63
2023/05/04 09:31:06;;;;;;;0.70;0.60;;;19.30;99.90;;;;;;5050985;28;20702;-62
2023/05/04 09:33:35;;;;;;;0.80;0.73;;;19.50;99.90;;;;;;5034694;28;20632;-63
2023/05/04 09:36:15;;;;;;;0.88;0.88;;;19.70;99.90;;;;;;5044117;28;20270;-63
2023/05/04 09:38:43;;;;;;;1.30;0.90;;;19.90;99.90;;;;;;5050495;28;20274;-63
2023/05/04 09:41:11;;;;;;;0.82;0.82;;;20.00;99.90;;;;;;5051008;28;20254;-63
2023/05/04 09:43:40;;;;;;;0.90;0.60;;;20.10;99.90;;;;;;5048110;28;20288;-63
2023/05/04 09:46:16;;;;;;;0.70;0.50;;;20.30;99.90;;;;;;5051016;28;20228;-63
2023/05/04 09:48:52;;;;;;;0.88;0.85;;;20.30;99.90;;;;;;5050691;28;20239;-63
2023/05/04 09:51:23;;;;;;;0.60;0.60;;;20.50;99.90;;;;;;5050226;28;20231;-63
2023/05/04 09:53:52;;;;;;;0.80;0.80;;;20.60;99.90;;;;;;5061984;28;20618;-63
2023/05/04 09:56:28;;;;;;;0.90;0.68;;;20.60;99.90;;;;;;5049897;28;20204;-63
2023/05/04 09:58:57;;;;;;;1.05;0.60;;;20.80;99.90;;;;;;5048755;28;20972;-63
2023/05/04 10:01:28;;;;;;;0.80;0.60;;;21.00;99.90;;;;;;5035294;28;20213;-63
2023/05/04 10:03:56;;;;;;;0.73;0.73;;;21.20;99.90;;;;;;5049854;28;20956;-63
2023/05/04 10:06:29;;;;;;;0.70;0.60;;;21.40;99.80;;;;;;5049853;28;20239;-63
2023/05/04 10:08:59;;;;;;;1.00;0.77;;;21.30;99.10;;;;;;5049299;28;20377;-63
2023/05/04 10:11:29;;;;;;;2.95;1.45;;;21.40;99.80;;;;;;5050456;28;20715;-63
2023/05/04 10:13:57;;;;;;;1.08;0.95;;;21.80;98.80;;;;;;5049551;28;20208;-63
2023/05/04 10:16:33;;;;;;;1.00;0.60;;;21.90;99.90;;;;;;5050192;28;20198;-64
2023/05/04 10:19:15;;;;;;;2.05;1.30;;;22.20;98.80;;;;;;5049812;28;20221;-63
2023/05/04 10:21:57;;;;;;;0.70;0.60;;;21.90;99.10;;;;;;5049917;28;20233;-63
2023/05/04 10:24:46;;;;;;;1.25;1.05;;;22.40;98.90;;;;;;5049837;28;20312;-63
2023/05/04 10:27:17;;;;;;;0.85;0.70;;;22.50;98.90;;;;;;5043356;28;20203;-63
2023/05/04 10:29:49;;;;;;;0.60;0.43;;;22.80;98.00;;;;;;5043894;28;20232;-63
2023/05/04 10:32:21;;;;;;;0.73;0.65;;;22.90;98.80;;;;;;5049907;28;20323;-63
2023/05/04 10:34:49;;;;;;;0.80;0.60;;;23.30;96.50;;;;;;5047384;28;20204;-65
2023/05/04 10:37:20;;;;;;;0.70;0.60;;;23.70;96.00;;;;;;5044266;28;20813;-63
2023/05/04 10:39:52;;;;;;;0.80;0.70;;;23.70;94.70;;;;;;5045626;28;20230;-64
2023/05/04 10:42:21;;;;;;;0.80;0.70;;;23.70;93.20;;;;;;5045845;28;20206;-63
2023/05/04 10:44:50;;;;;;;0.82;0.73;;;23.60;92.60;;;;;;5044752;28;20202;-64
2023/05/04 10:47:29;;;;;;;1.52;1.42;;;23.70;92.40;;;;;;5047349;28;20216;-64
2023/05/04 10:50:07;;;;;;;0.70;0.57;;;23.60;92.30;;;;;;5049550;28;20238;-64
2023/05/04 10:52:46;;;;;;;0.77;0.65;;;23.80;92.50;;;;;;5049039;28;20304;-64
2023/05/04 10:55:15;;;;;;;1.02;0.90;;;23.90;91.40;;;;;;5044270;28;20213;-64
2023/05/04 10:57:48;;;;;;;0.60;0.50;;;24.20;92.20;;;;;;5038515;28;20243;-64
2023/05/04 11:00:17;;;;;;;1.63;1.27;;;24.40;90.80;;;;;;5046775;28;20233;-64
2023/05/04 11:02:46;;;;;;;0.80;0.55;;;24.30;90.50;;;;;;5046700;28;20289;-63
2023/05/04 11:05:18;;;;;;;0.60;0.60;;;24.30;89.90;;;;;;5046193;28;20230;-64
2023/05/04 11:07:51;;;;;;;0.60;0.40;;;24.20;89.90;;;;;;5044836;28;20209;-64
2023/05/04 11:10:25;;;;;;;0.63;0.60;;;24.50;90.80;;;;;;5050627;28;20245;-64
2023/05/04 11:12:59;;;;;;;0.70;0.60;;;24.70;89.80;;;;;;5048789;28;20293;-63
2023/05/04 11:15:29;;;;;;;1.17;0.60;;;24.90;89.80;;;;;;5045681;28;20214;-63
2023/05/04 11:17:58;;;;;;;1.00;0.70;;;24.90;90.00;;;;;;5049537;28;20226;-63
2023/05/04 11:20:26;;;;;;;0.80;0.80;;;25.50;90.50;;;;;;5048752;28;20208;-64
2023/05/04 11:22:56;;;;;;;0.70;0.70;;;25.40;89.90;;;;;;5048738;28;20260;-64
2023/05/04 11:25:27;;;;;;;0.60;0.60;;;25.30;86.90;;;;;;5051761;28;20214;-63
2023/05/04 11:27:55;;;;;;;0.77;0.77;;;25.70;88.40;;;;;;5049733;28;20329;-64
2023/05/04 11:30:30;;;;;;;1.00;0.60;;;25.70;88.30;;;;;;5046446;28;20272;-63
2023/05/04 11:32:59;;;;;;;0.70;0.70;;;25.70;87.20;;;;;;5049703;28;20214;-64
2023/05/04 11:35:27;;;;;;;1.05;0.60;;;25.60;87.00;;;;;;5047422;28;20893;-63
2023/05/04 11:37:56;;;;;;;0.82;0.60;;;25.40;87.60;;;;;;5050139;28;20204;-63
2023/05/04 11:40:25;;;;;;;1.00;0.90;;;25.30;85.40;;;;;;5048523;28;20217;-63
2023/05/04 11:42:55;;;;;;;0.75;0.70;;;25.70;86.20;;;;;;5049595;28;20210;-63
2023/05/04 11:45:26;;;;;;;0.70;0.70;;;26.20;86.40;;;;;;5050233;28;20225;-65
2023/05/04 11:47:55;;;;;;;0.65;0.60;;;25.90;83.90;;;;;;5047413;28;20241;-64
2023/05/04 11:50:25;;;;;;;1.85;0.95;;;25.80;84.40;;;;;;5047743;28;20228;-63
2023/05/04 11:53:06;;;;;;;1.80;0.85;;;25.90;86.10;;;;;;5046314;28;21768;-64
2023/05/04 11:55:36;;;;;;;0.60;0.50;;;26.00;84.20;;;;;;5048067;28;20208;-64
2023/05/04 11:58:06;;;;;;;0.70;0.65;;;26.10;84.50;;;;;;5048847;28;20277;-63
2023/05/04 12:00:37;;;;;;;0.73;0.68;;;26.20;85.10;;;;;;5049905;28;20234;-63
2023/05/04 12:03:06;;;;;;;0.70;0.65;;;26.30;85.00;;;;;;5047501;28;20282;-64
2023/05/04 12:05:36;;;;;;;0.70;0.60;;;26.20;84.60;;;;;;5046456;28;20215;-63
2023/05/04 12:08:07;;;;;;;0.90;0.60;;;26.70;84.00;;;;;;5046177;28;20238;-64
2023/05/04 12:10:35;;;;;;;0.70;0.60;;;27.10;82.90;;;;;;5059787;22;20970;-71
2023/05/04 12:13:03;;;;;;;1.00;0.90;;;26.90;81.90;;;;;;5036664;28;20295;-70
2023/05/04 12:15:32;;;;;;;0.70;0.70;;;26.90;83.10;;;;;;5032200;28;20208;-69
2023/05/04 12:18:00;;;;;;;0.80;0.55;;;26.90;82.80;;;;;;5030775;28;20296;-70
2023/05/04 12:20:30;;;;;;;0.60;0.50;;;27.00;82.60;;;;;;5025892;28;20239;-71
2023/05/04 12:23:05;;;;;;;0.80;0.60;;;27.00;81.10;;;;;;5026652;28;20201;-69
2023/05/04 12:25:34;;;;;;;1.08;0.98;;;27.20;81.80;;;;;;5027521;28;20238;-70
2023/05/04 12:28:15;;;;;;;1.08;0.98;;;27.60;80.10;;;;;;5026031;28;20769;-69
2023/05/04 12:30:42;;;;;;;0.70;0.70;;;27.70;78.90;;;;;;5027722;28;20240;-70
2023/05/04 12:33:10;;;;;;;0.98;0.80;;;28.10;80.00;;;;;;5025439;28;20208;-70
2023/05/04 12:35:38;;;;;;;1.10;1.00;;;28.30;77.80;;;;;;5025126;28;20225;-70
2023/05/04 12:38:06;;;;;;;1.00;0.60;;;28.50;80.00;;;;;;5027591;28;20329;-70
2023/05/04 12:40:36;;;;;;;0.70;0.60;;;28.60;77.30;;;;;;5025662;28;20267;-69
2023/05/04 12:43:04;;;;;;;0.70;0.68;;;28.50;77.20;;;;;;5027769;28;20204;-70
2023/05/04 12:45:32;;;;;;;0.60;0.57;;;28.20;77.20;;;;;;5023818;28;20212;-69
2023/05/04 12:48:00;;;;;;;0.80;0.73;;;28.20;76.90;;;;;;5028285;28;20217;-70
2023/05/04 12:50:28;;;;;;;0.70;0.70;;;28.40;77.30;;;;;;5024627;28;20673;-70
2023/05/04 12:52:56;;;;;;;1.17;1.08;;;28.30;76.10;;;;;;5025720;28;20295;-70
2023/05/04 12:55:24;;;;;;;0.90;0.75;;;28.70;75.80;;;;;;5027102;28;20236;-70
2023/05/04 12:57:53;;;;;;;1.10;0.80;;;28.70;74.80;;;;;;5028040;28;20200;-70